createdAt,value
2018-08-06T00:00:34.092Z,95816.5
2018-08-06T00:01:36.540Z,95817.8
2018-08-06T00:02:38.712Z,95816.4
2018-08-06T00:03:40.892Z,95817.6
2018-08-06T00:04:43.366Z,95815.7
2018-08-06T00:05:45.272Z,95817.3
2018-08-06T00:06:47.182Z,95815
2018-08-06T00:07:49.357Z,95813.1
2018-08-06T00:08:51.820Z,95816.4
2018-08-06T00:09:54.266Z,95817.3
2018-08-06T00:10:56.438Z,95812.6
2018-08-06T00:11:58.059Z,95816.7
2018-08-06T00:13:00.251Z,95814.8
2018-08-06T00:14:02.133Z,95816.7
2018-08-06T00:15:04.049Z,95818.4
2018-08-06T00:16:05.923Z,95822
2018-08-06T00:17:08.093Z,95815.6
2018-08-06T00:18:10.282Z,95816.4
2018-08-06T00:19:12.730Z,95813.7
2018-08-06T00:20:15.187Z,95814.7
2018-08-06T00:21:17.106Z,95812.1
2018-08-06T00:22:19.035Z,95815.3
2018-08-06T00:23:21.186Z,95813.3
2018-08-06T00:24:23.376Z,95814
2018-08-06T00:25:25.298Z,95814.9
2018-08-06T00:26:27.197Z,95814.9
2018-08-06T00:27:29.357Z,95812.9
2018-08-06T00:28:31.801Z,95813.6
2018-08-06T00:29:34.131Z,95812.3
2018-08-06T00:30:36.390Z,95804.5
2018-08-06T00:31:38.559Z,95804.9
2018-08-06T00:32:40.718Z,95804.4
2018-08-06T00:33:42.902Z,95800.8
2018-08-06T00:34:44.797Z,95801.6
2018-08-06T00:35:47.243Z,95796.2
2018-08-06T00:36:49.715Z,95791.7
2018-08-06T00:37:52.167Z,95793.6
2018-08-06T00:38:54.618Z,95792.8
2018-08-06T00:39:56.499Z,95794.9
2018-08-06T00:40:58.695Z,95794.2
2018-08-06T00:42:00.865Z,95795.6
2018-08-06T00:43:03.024Z,95794.2
2018-08-06T00:44:05.485Z,95785.9
2018-08-06T00:45:07.667Z,95787.5
2018-08-06T00:46:10.119Z,95785.7
2018-08-06T00:47:12.297Z,95785.4
2018-08-06T00:48:14.467Z,95780.1
2018-08-06T00:49:16.913Z,95779.2
2018-08-06T00:50:19.357Z,95774.7
2018-08-06T00:51:21.794Z,95774.6
2018-08-06T00:52:23.976Z,95774.8
2018-08-06T00:53:26.155Z,95775.5
2018-08-06T00:54:28.596Z,95775.9
2018-08-06T00:55:31.042Z,95769.8
2018-08-06T00:56:33.221Z,95773.4
2018-08-06T00:57:35.685Z,95772.1
2018-08-06T00:58:38.127Z,95769.1
2018-08-06T00:59:40.564Z,95769.1
2018-08-06T01:00:42.487Z,95768.3
2018-08-06T01:01:44.934Z,95762.2
2018-08-06T01:02:47.377Z,95761.7
2018-08-06T01:03:49.841Z,95761.7
2018-08-06T01:04:52.297Z,95760.6
2018-08-06T01:05:54.176Z,95757.4
2018-08-06T01:06:56.628Z,95755.9
2018-08-06T01:07:58.799Z,95756.3
2018-08-06T01:09:00.700Z,95756.8
2018-08-06T01:10:03.142Z,95757.6
2018-08-06T01:11:05.319Z,95755.1
2018-08-06T01:12:07.466Z,95756.2
2018-08-06T01:13:09.922Z,95752.2
2018-08-06T01:14:12.363Z,95751.3
2018-08-06T01:15:14.805Z,95751.6
2018-08-06T01:16:16.971Z,95748.2
2018-08-06T01:17:18.875Z,95748.7
2018-08-06T01:18:21.324Z,95751
2018-08-06T01:19:23.500Z,95749.5
2018-08-06T01:20:25.691Z,95753.3
2018-08-06T01:21:28.128Z,95753.1
2018-08-06T01:22:30.293Z,95755.9
2018-08-06T01:23:32.741Z,95749.5
2018-08-06T01:24:34.926Z,95752
2018-08-06T01:25:36.864Z,95754.2
2018-08-06T01:26:39.321Z,95749.9
2018-08-06T01:27:41.238Z,95753.3
2018-08-06T01:28:43.427Z,95753.2
2018-08-06T01:29:45.617Z,95751.1
2018-08-06T01:30:48.062Z,95749.6
2018-08-06T01:31:49.960Z,95751
2018-08-06T01:32:52.144Z,95747.6
2018-08-06T01:33:54.307Z,95746
2018-08-06T01:34:55.917Z,95744.6
2018-08-06T01:35:57.813Z,95747.2
2018-08-06T01:36:59.985Z,95748.5
2018-08-06T01:38:02.160Z,95750.3
2018-08-06T01:39:04.607Z,95745.7
2018-08-06T01:40:06.521Z,95746.5
2018-08-06T01:41:08.410Z,95745
2018-08-06T01:42:10.859Z,95744.2
2018-08-06T01:43:13.305Z,95741.8
2018-08-06T01:44:15.738Z,95743.6
2018-08-06T01:45:18.212Z,95739.6
2018-08-06T01:46:20.133Z,95737.4
2018-08-06T01:47:22.315Z,95740.5
2018-08-06T01:48:24.764Z,95739.5
2018-08-06T01:49:26.945Z,95743.6
2018-08-06T01:50:29.389Z,95745.5
2018-08-06T01:51:31.551Z,95741
2018-08-06T01:52:33.189Z,95742.2
2018-08-06T01:53:35.638Z,95741
2018-08-06T01:54:37.528Z,95739.8
2018-08-06T01:55:39.697Z,95739.8
2018-08-06T01:56:41.871Z,95738.2
2018-08-06T01:57:44.055Z,95737.2
2018-08-06T01:58:45.939Z,95741.3
2018-08-06T01:59:48.379Z,95742.6
2018-08-06T02:00:50.834Z,95743.4
2018-08-06T02:01:53.019Z,95740.4
2018-08-06T02:02:55.481Z,95738.6
2018-08-06T02:03:57.945Z,95743.9
2018-08-06T02:05:00.389Z,95739.1
2018-08-06T02:06:02.856Z,95738.5
2018-08-06T02:07:05.301Z,95738.1
2018-08-06T02:08:07.738Z,95733.8
2018-08-06T02:09:10.202Z,95731.8
2018-08-06T02:10:12.388Z,95733.7
2018-08-06T02:11:14.847Z,95727
2018-08-06T02:12:16.749Z,95727.2
2018-08-06T02:13:18.876Z,95732.8
2018-08-06T02:14:21.344Z,95731.7
2018-08-06T02:15:23.788Z,95731.4
2018-08-06T02:16:26.244Z,95728
2018-08-06T02:17:28.393Z,95729.7
2018-08-06T02:18:30.847Z,95724.5
2018-08-06T02:19:33.301Z,95734.1
2018-08-06T02:20:35.481Z,95730.6
2018-08-06T02:21:37.655Z,95730.3
2018-08-06T02:22:39.839Z,95732.1
2018-08-06T02:23:42.020Z,95732.9
2018-08-06T02:24:44.465Z,95727.9
2018-08-06T02:25:46.369Z,95731.8
2018-08-06T02:26:48.814Z,95729.6
2018-08-06T02:27:51.256Z,95728.6
2018-08-06T02:28:53.165Z,95728.4
2018-08-06T02:29:55.062Z,95727.2
2018-08-06T02:30:57.507Z,95731.2
2018-08-06T02:31:59.971Z,95731.5
2018-08-06T02:33:02.410Z,95737.3
2018-08-06T02:34:04.855Z,95735
2018-08-06T02:35:07.325Z,95733.4
2018-08-06T02:36:09.756Z,95734.4
2018-08-06T02:37:11.897Z,95730
2018-08-06T02:38:14.333Z,95729.2
2018-08-06T02:39:16.524Z,95726.9
2018-08-06T02:40:18.988Z,95725.2
2018-08-06T02:41:21.150Z,95726.1
2018-08-06T02:42:23.588Z,95724.3
2018-08-06T02:43:25.744Z,95724.5
2018-08-06T02:44:27.910Z,95724.7
2018-08-06T02:45:30.059Z,95724.6
2018-08-06T02:46:32.511Z,95721.8
2018-08-06T02:47:34.742Z,95726.1
2018-08-06T02:48:37.176Z,95724.2
2018-08-06T02:49:39.355Z,95725.6
2018-08-06T02:50:41.528Z,95723.8
2018-08-06T02:51:43.985Z,95725.7
2018-08-06T02:52:46.185Z,95725.4
2018-08-06T02:53:48.338Z,95723.5
2018-08-06T02:54:50.519Z,95718.6
2018-08-06T02:55:52.701Z,95722.3
2018-08-06T02:56:54.870Z,95721
2018-08-06T02:57:56.747Z,95720.9
2018-08-06T02:58:59.188Z,95718.6
2018-08-06T03:00:01.724Z,95719
2018-08-06T03:01:03.655Z,95715.8
2018-08-06T03:02:06.106Z,95718.5
2018-08-06T03:03:08.247Z,95718.4
2018-08-06T03:04:10.698Z,95716.7
2018-08-06T03:05:12.846Z,95719.2
2018-08-06T03:06:15.290Z,95717.4
2018-08-06T03:07:17.197Z,95716.1
2018-08-06T03:08:19.378Z,95713.5
2018-08-06T03:09:21.267Z,95715
2018-08-06T03:10:23.715Z,95718.5
2018-08-06T03:11:26.184Z,95715.6
2018-08-06T03:12:28.636Z,95715.3
2018-08-06T03:13:30.267Z,95714.7
2018-08-06T03:14:32.436Z,95713.7
2018-08-06T03:15:34.604Z,95717.8
2018-08-06T03:16:37.066Z,95719.9
2018-08-06T03:17:39.512Z,95720.2
2018-08-06T03:18:41.958Z,95718.3
2018-08-06T03:19:44.405Z,95715.8
2018-08-06T03:20:46.849Z,95723.5
2018-08-06T03:21:48.762Z,95718.7
2018-08-06T03:22:51.218Z,95719.1
2018-08-06T03:23:53.657Z,95720
2018-08-06T03:24:55.580Z,95721.6
2018-08-06T03:25:58.022Z,95725.3
2018-08-06T03:27:00.219Z,95725.1
2018-08-06T03:28:02.382Z,95720.6
2018-08-06T03:29:04.857Z,95722.9
2018-08-06T03:30:06.762Z,95721.6
2018-08-06T03:31:08.962Z,95719.5
2018-08-06T03:32:11.415Z,95722.5
2018-08-06T03:33:13.853Z,95725
2018-08-06T03:34:16.006Z,95720.7
2018-08-06T03:35:18.192Z,95725.1
2018-08-06T03:36:20.629Z,95720.7
2018-08-06T03:37:22.558Z,95722.5
2018-08-06T03:38:24.442Z,95722.5
2018-08-06T03:39:26.606Z,95717.3
2018-08-06T03:40:28.270Z,95724.5
2018-08-06T03:41:30.158Z,95723.1
2018-08-06T03:42:31.780Z,95721.3
2018-08-06T03:43:34.231Z,95723.4
2018-08-06T03:44:36.124Z,95724
2018-08-06T03:45:38.584Z,95725.8
2018-08-06T03:46:40.760Z,95727.9
2018-08-06T03:47:42.915Z,95724.4
2018-08-06T03:48:45.082Z,95724.6
2018-08-06T03:49:47.230Z,95725.2
2018-08-06T03:50:49.678Z,95724.9
2018-08-06T03:51:51.865Z,95728.1
2018-08-06T03:52:54.260Z,95730.8
2018-08-06T03:53:56.572Z,95725
2018-08-06T03:54:58.765Z,95726.9
2018-08-06T03:56:00.941Z,95729.3
2018-08-06T03:57:02.871Z,95726.2
2018-08-06T03:58:05.317Z,95726.1
2018-08-06T03:59:07.501Z,95725.7
2018-08-06T04:00:09.950Z,95730.2
2018-08-06T04:01:12.390Z,95725.8
2018-08-06T04:02:14.307Z,95726.9
2018-08-06T04:03:16.487Z,95723.6
2018-08-06T04:04:18.675Z,95727.6
2018-08-06T04:05:20.853Z,95728.5
2018-08-06T04:06:23.315Z,95727.1
2018-08-06T04:07:25.768Z,95725.3
2018-08-06T04:08:27.935Z,95723.8
2018-08-06T04:09:29.556Z,95725.1
2018-08-06T04:10:31.471Z,95724.9
2018-08-06T04:11:33.917Z,95726.8
2018-08-06T04:12:36.089Z,95721.9
2018-08-06T04:13:38.945Z,95719.9
2018-08-06T04:14:41.298Z,95727.3
2018-08-06T04:15:43.467Z,95726.4
2018-08-06T04:16:45.905Z,95728.3
2018-08-06T04:17:48.080Z,95726.4
2018-08-06T04:18:49.967Z,95727
2018-08-06T04:19:52.404Z,95727.8
2018-08-06T04:20:54.856Z,95723.3
2018-08-06T04:21:57.044Z,95726.2
2018-08-06T04:22:59.257Z,95724.2
2018-08-06T04:24:01.127Z,95727.9
2018-08-06T04:25:03.577Z,95728.4
2018-08-06T04:26:05.749Z,95729.5
2018-08-06T04:27:08.195Z,95729.3
2018-08-06T04:28:10.646Z,95731.7
2018-08-06T04:29:13.126Z,95731.6
2018-08-06T04:30:15.288Z,95732.8
2018-08-06T04:31:17.728Z,95733.6
2018-08-06T04:32:20.188Z,95731.5
2018-08-06T04:33:22.099Z,95731.1
2018-08-06T04:34:24.238Z,95729
2018-08-06T04:35:26.416Z,95728
2018-08-06T04:36:28.339Z,95731.3
2018-08-06T04:37:30.225Z,95726.4
2018-08-06T04:38:32.893Z,95730.2
2018-08-06T04:39:35.429Z,95727.7
2018-08-06T04:40:37.333Z,95732.9
2018-08-06T04:41:39.532Z,95731.1
2018-08-06T04:42:41.975Z,95733.4
2018-08-06T04:43:44.108Z,95735.5
2018-08-06T04:44:46.547Z,95736.1
2018-08-06T04:45:48.462Z,95734.3
2018-08-06T04:46:50.632Z,95734.8
2018-08-06T04:47:53.083Z,95732.2
2018-08-06T04:48:54.973Z,95733.4
2018-08-06T04:49:56.854Z,95732.1
2018-08-06T04:50:59.304Z,95736.1
2018-08-06T04:52:01.180Z,95730.1
2018-08-06T04:53:03.094Z,95736.7
2018-08-06T04:54:05.549Z,95733.7
2018-08-06T04:55:07.726Z,95735.9
2018-08-06T04:56:10.175Z,95735.5
2018-08-06T04:57:12.623Z,95733.7
2018-08-06T04:58:15.071Z,95737.1
2018-08-06T04:59:17.255Z,95733.2
2018-08-06T05:00:19.706Z,95737.1
2018-08-06T05:01:22.152Z,95734.7
2018-08-06T05:02:24.647Z,95734.5
2018-08-06T05:03:26.818Z,95738.2
2018-08-06T05:04:29.268Z,95738.4
2018-08-06T05:05:31.723Z,95736.4
2018-08-06T05:06:33.367Z,95733.9
2018-08-06T05:07:35.548Z,95739.3
2018-08-06T05:08:37.206Z,95735.1
2018-08-06T05:09:39.683Z,95736.3
2018-08-06T05:10:42.153Z,95738.1
2018-08-06T05:11:44.369Z,95738.6
2018-08-06T05:12:46.818Z,95743.3
2018-08-06T05:13:48.989Z,95743.4
2018-08-06T05:14:51.164Z,95740.4
2018-08-06T05:15:53.048Z,95741.8
2018-08-06T05:16:55.492Z,95742.2
2018-08-06T05:17:57.938Z,95741.4
2018-08-06T05:19:00.386Z,95744.5
2018-08-06T05:20:02.830Z,95743.4
2018-08-06T05:21:05.272Z,95743.3
2018-08-06T05:22:07.726Z,95742.7
2018-08-06T05:23:10.190Z,95743.7
2018-08-06T05:24:12.651Z,95748.7
2018-08-06T05:25:15.117Z,95746.8
2018-08-06T05:26:17.307Z,95746.1
2018-08-06T05:27:19.455Z,95755.7
2018-08-06T05:28:21.632Z,95753.6
2018-08-06T05:29:24.084Z,95754.2
2018-08-06T05:30:26.528Z,95755.5
2018-08-06T05:31:28.986Z,95760.7
2018-08-06T05:32:31.443Z,95753.4
2018-08-06T05:33:33.887Z,95754.2
2018-08-06T05:34:36.073Z,95755
2018-08-06T05:35:38.522Z,95756.7
2018-08-06T05:36:40.158Z,95756.3
2018-08-06T05:37:42.354Z,95755.3
2018-08-06T05:38:44.806Z,95758.5
2018-08-06T05:39:46.979Z,95754.2
2018-08-06T05:40:49.185Z,95753.8
2018-08-06T05:41:51.642Z,95758.3
2018-08-06T05:42:54.091Z,95757.6
2018-08-06T05:43:56.265Z,95762.3
2018-08-06T05:44:58.519Z,95765.3
2018-08-06T05:46:00.527Z,95767.3
2018-08-06T05:47:02.740Z,95761.5
2018-08-06T05:48:05.212Z,95763.9
2018-08-06T05:49:07.691Z,95767.2
2018-08-06T05:50:09.842Z,95766.7
2018-08-06T05:51:11.754Z,95764.4
2018-08-06T05:52:14.205Z,95769.3
2018-08-06T05:53:16.388Z,95767.7
2018-08-06T05:54:18.833Z,95762
2018-08-06T05:55:21.280Z,95768.4
2018-08-06T05:56:23.461Z,95767.8
2018-08-06T05:57:25.658Z,95767.7
2018-08-06T05:58:28.136Z,95765.7
2018-08-06T05:59:30.319Z,95759.6
2018-08-06T06:00:32.779Z,95771.3
2018-08-06T06:01:35.244Z,95768.1
2018-08-06T06:02:37.235Z,95765.7
2018-08-06T06:03:39.670Z,95766.6
2018-08-06T06:04:41.289Z,95767.2
2018-08-06T06:05:43.433Z,95762.3
2018-08-06T06:06:45.887Z,95765.7
2018-08-06T06:07:48.352Z,95762.1
2018-08-06T06:08:50.805Z,95764
2018-08-06T06:09:52.708Z,95762.6
2018-08-06T06:10:55.166Z,95765.8
2018-08-06T06:11:57.074Z,95760
2018-08-06T06:12:59.531Z,95762.9
2018-08-06T06:14:01.982Z,95764.1
2018-08-06T06:15:03.866Z,95760.9
2018-08-06T06:16:06.313Z,95762.9
2018-08-06T06:17:08.760Z,95763.7
2018-08-06T06:18:10.969Z,95760.3
2018-08-06T06:19:13.773Z,95762.4
2018-08-06T06:20:15.985Z,95761.3
2018-08-06T06:21:18.161Z,95763
2018-08-06T06:22:20.625Z,95765.7
2018-08-06T06:23:23.085Z,95764.6
2018-08-06T06:24:25.242Z,95767.8
2018-08-06T06:25:27.156Z,95764.1
2018-08-06T06:26:29.061Z,95765
2018-08-06T06:27:31.230Z,95765
2018-08-06T06:28:33.791Z,95760.2
2018-08-06T06:29:36.071Z,95760.8
2018-08-06T06:30:38.258Z,95762.4
2018-08-06T06:31:40.176Z,95766.5
2018-08-06T06:32:42.351Z,95765.5
2018-08-06T06:33:43.710Z,95768.3
2018-08-06T06:34:45.409Z,95770.7
2018-08-06T06:35:47.329Z,95773
2018-08-06T06:36:49.505Z,95769.4
2018-08-06T06:37:51.678Z,95772.7
2018-08-06T06:38:53.564Z,95768.6
2018-08-06T06:39:55.763Z,95773.2
2018-08-06T06:40:57.938Z,95769.8
2018-08-06T06:41:59.822Z,95772.8
2018-08-06T06:43:01.728Z,95770.8
2018-08-06T06:44:03.660Z,95773.6
2018-08-06T06:45:06.096Z,95771.3
2018-08-06T06:46:08.554Z,95772.1
2018-08-06T06:47:10.740Z,95768.3
2018-08-06T06:48:12.649Z,95770.2
2018-08-06T06:49:14.744Z,95768.2
2018-08-06T06:50:16.938Z,95768.6
2018-08-06T06:51:19.392Z,95768.2
2018-08-06T06:52:21.582Z,95771.4
2018-08-06T06:53:23.768Z,95771.9
2018-08-06T06:54:26.277Z,95772.7
2018-08-06T06:55:28.297Z,95772
2018-08-06T06:56:30.474Z,95771.3
2018-08-06T06:57:32.622Z,95768.4
2018-08-06T06:58:35.085Z,95770.3
2018-08-06T06:59:37.261Z,95768.9
2018-08-06T07:00:39.718Z,95767.7
2018-08-06T07:01:42.175Z,95769.5
2018-08-06T07:02:44.619Z,95765.8
2018-08-06T07:03:46.803Z,95764.4
2018-08-06T07:04:49.249Z,95765.1
2018-08-06T07:05:51.706Z,95766.2
2018-08-06T07:06:53.859Z,95764.4
2018-08-06T07:07:56.317Z,95765.2
2018-08-06T07:08:58.755Z,95764.4
2018-08-06T07:10:00.635Z,95764.8
2018-08-06T07:11:02.818Z,95763.5
2018-08-06T07:12:05.277Z,95764.8
2018-08-06T07:13:07.721Z,95761
2018-08-06T07:14:10.529Z,95763.1
2018-08-06T07:15:12.729Z,95760.6
2018-08-06T07:16:15.175Z,95760.7
2018-08-06T07:17:17.637Z,95762.5
2018-08-06T07:18:19.828Z,95758.3
2018-08-06T07:19:22.275Z,95756
2018-08-06T07:20:25.341Z,95759.8
2018-08-06T07:21:27.993Z,95758.8
2018-08-06T07:22:30.453Z,95762.9
2018-08-06T07:23:32.334Z,95760.6
2018-08-06T07:24:34.776Z,95764
2018-08-06T07:25:37.229Z,95754.7
2018-08-06T07:26:38.861Z,95765.1
2018-08-06T07:27:41.320Z,95765.3
2018-08-06T07:28:43.203Z,95763
2018-08-06T07:29:45.398Z,95764.2
2018-08-06T07:30:47.867Z,95759.8
2018-08-06T07:31:50.314Z,95763.3
2018-08-06T07:32:52.754Z,95762.3
2018-08-06T07:33:54.681Z,95756.2
2018-08-06T07:34:56.593Z,95755
2018-08-06T07:35:58.478Z,95754.8
2018-08-06T07:37:00.926Z,95757.5
2018-08-06T07:38:03.362Z,95757.2
2018-08-06T07:39:05.831Z,95755.5
2018-08-06T07:40:08.206Z,95758.5
2018-08-06T07:41:10.179Z,95754
2018-08-06T07:42:12.637Z,95753.6
2018-08-06T07:43:15.612Z,95754.2
2018-08-06T07:44:17.937Z,95753.8
2018-08-06T07:45:19.813Z,95753.8
2018-08-06T07:46:21.696Z,95751.9
2018-08-06T07:47:24.155Z,95751.4
2018-08-06T07:48:26.621Z,95749.3
2018-08-06T07:49:28.901Z,95752.6
2018-08-06T07:50:30.796Z,95752.6
2018-08-06T07:51:32.977Z,95751.1
2018-08-06T07:52:34.880Z,95750.8
2018-08-06T07:53:37.330Z,95754.8
2018-08-06T07:54:39.213Z,95749.6
2018-08-06T07:55:41.385Z,95746.4
2018-08-06T07:56:43.274Z,95751.4
2018-08-06T07:57:45.468Z,95752.4
2018-08-06T07:58:47.648Z,95744.9
2018-08-06T07:59:50.109Z,95744
2018-08-06T08:00:52.791Z,95748.5
2018-08-06T08:01:54.971Z,95745
2018-08-06T08:02:57.425Z,95741
2018-08-06T08:03:59.877Z,95746.8
2018-08-06T08:05:02.056Z,95743.9
2018-08-06T08:06:03.700Z,95745.3
2018-08-06T08:07:06.150Z,95744.5
2018-08-06T08:08:08.597Z,95744.1
2018-08-06T08:09:10.777Z,95746.6
2018-08-06T08:10:12.959Z,95741
2018-08-06T08:11:14.841Z,95745.2
2018-08-06T08:12:17.300Z,95742.2
2018-08-06T08:13:19.773Z,95739.8
2018-08-06T08:14:21.955Z,95738
2018-08-06T08:15:23.831Z,95737.9
2018-08-06T08:16:26.285Z,95744.1
2018-08-06T08:17:28.523Z,95740.1
2018-08-06T08:18:30.765Z,95740.5
2018-08-06T08:19:32.821Z,95737.5
2018-08-06T08:20:34.637Z,95737.1
2018-08-06T08:21:36.831Z,95733.1
2018-08-06T08:22:38.984Z,95737.8
2018-08-06T08:23:40.920Z,95733
2018-08-06T08:24:42.583Z,95736.7
2018-08-06T08:25:45.046Z,95731.6
2018-08-06T08:26:46.399Z,95733.3
2018-08-06T08:27:48.847Z,95727.5
2018-08-06T08:28:51.307Z,95728.4
2018-08-06T08:29:53.486Z,95729.2
2018-08-06T08:30:55.408Z,95730.5
2018-08-06T08:31:57.301Z,95725.4
2018-08-06T08:32:59.472Z,95724.4
2018-08-06T08:34:01.971Z,95728.2
2018-08-06T08:35:04.249Z,95725.4
2018-08-06T08:36:06.708Z,95724.5
2018-08-06T08:37:08.600Z,95729.8
2018-08-06T08:38:10.776Z,95724.2
2018-08-06T08:39:12.962Z,95729.9
2018-08-06T08:40:15.423Z,95729
2018-08-06T08:41:17.868Z,95730
2018-08-06T08:42:19.796Z,95726.7
2018-08-06T08:43:21.978Z,95728
2018-08-06T08:44:24.423Z,95729.6
2018-08-06T08:45:27.068Z,95725.4
2018-08-06T08:46:29.342Z,95724.9
2018-08-06T08:47:31.534Z,95726.2
2018-08-06T08:48:33.716Z,95721.6
2018-08-06T08:49:35.917Z,95724.2
2018-08-06T08:50:37.878Z,95725.4
2018-08-06T08:51:40.327Z,95727.2
2018-08-06T08:52:42.253Z,95728.1
2018-08-06T08:53:44.452Z,95723.5
2018-08-06T08:54:46.925Z,95721.2
2018-08-06T08:55:49.371Z,95722.7
2018-08-06T08:56:51.284Z,95715.9
2018-08-06T08:57:53.440Z,95716.2
2018-08-06T08:58:56.537Z,95719.4
2018-08-06T08:59:58.801Z,95712.5
2018-08-06T09:01:00.995Z,95715.5
2018-08-06T09:02:02.862Z,95712.6
2018-08-06T09:03:05.323Z,95715.1
2018-08-06T09:04:07.507Z,95714.5
2018-08-06T09:05:09.387Z,95715.7
2018-08-06T09:06:11.846Z,95713.8
2018-08-06T09:07:14.440Z,95714.3
2018-08-06T09:08:16.596Z,95709.2
2018-08-06T09:09:19.097Z,95712.6
2018-08-06T09:10:21.559Z,95711.1
2018-08-06T09:11:23.460Z,95710.7
2018-08-06T09:12:25.905Z,95710.4
2018-08-06T09:13:28.076Z,95714.1
2018-08-06T09:14:30.529Z,95710.7
2018-08-06T09:15:32.711Z,95709.9
2018-08-06T09:16:34.623Z,95710.1
2018-08-06T09:17:36.537Z,95711.7
2018-08-06T09:18:38.984Z,95713
2018-08-06T09:19:41.176Z,95709.4
2018-08-06T09:20:43.627Z,95710.3
2018-08-06T09:21:45.553Z,95709.4
2018-08-06T09:22:48.010Z,95711.7
2018-08-06T09:23:50.179Z,95708.7
2018-08-06T09:24:52.370Z,95712.3
2018-08-06T09:25:54.265Z,95709.5
2018-08-06T09:26:56.452Z,95709.2
2018-08-06T09:27:58.914Z,95705.6
2018-08-06T09:29:01.071Z,95706.4
2018-08-06T09:30:03.524Z,95704.6
2018-08-06T09:31:05.703Z,95704.8
2018-08-06T09:32:07.850Z,95708
2018-08-06T09:33:10.307Z,95708.2
2018-08-06T09:34:12.468Z,95705.3
2018-08-06T09:35:14.909Z,95710.2
2018-08-06T09:36:17.098Z,95707.9
2018-08-06T09:37:19.556Z,95703.7
2018-08-06T09:38:21.755Z,95702.5
2018-08-06T09:39:23.942Z,95706.4
2018-08-06T09:40:26.180Z,95705.9
2018-08-06T09:41:27.512Z,95701.8
2018-08-06T09:42:29.686Z,95701.2
2018-08-06T09:43:31.893Z,95701.4
2018-08-06T09:44:34.085Z,95703.5
2018-08-06T09:45:36.543Z,95701.3
2018-08-06T09:46:38.164Z,95694.6
2018-08-06T09:47:40.346Z,95695.6
2018-08-06T09:48:42.906Z,95693.5
2018-08-06T09:49:45.571Z,95687.3
2018-08-06T09:50:47.473Z,95688.5
2018-08-06T09:51:49.659Z,95685.8
2018-08-06T09:52:51.356Z,95689.5
2018-08-06T09:53:53.852Z,95686.5
2018-08-06T09:54:56.303Z,95687.2
2018-08-06T09:55:58.775Z,95683.9
2018-08-06T09:57:01.430Z,95692.6
2018-08-06T09:58:03.698Z,95691.8
2018-08-06T09:59:05.848Z,95682.1
2018-08-06T10:00:07.745Z,95681.6
2018-08-06T10:01:10.197Z,95684
2018-08-06T10:02:12.109Z,95677.8
2018-08-06T10:03:14.572Z,95677.7
2018-08-06T10:04:16.457Z,95680.7
2018-08-06T10:05:18.670Z,95677.3
2018-08-06T10:06:22.195Z,95674.1
2018-08-06T10:07:24.778Z,95678
2018-08-06T10:08:26.996Z,95680.7
2018-08-06T10:09:29.192Z,95677.7
2018-08-06T10:10:31.647Z,95680.9
2018-08-06T10:11:34.100Z,95681.1
2018-08-06T10:12:35.997Z,95673.8
2018-08-06T10:13:37.893Z,95677.8
2018-08-06T10:14:40.350Z,95673.1
2018-08-06T10:15:42.812Z,95675.4
2018-08-06T10:16:45.273Z,95673.7
2018-08-06T10:17:47.717Z,95675.6
2018-08-06T10:18:50.604Z,95671.4
2018-08-06T10:19:52.962Z,95671.4
2018-08-06T10:20:55.154Z,95671.1
2018-08-06T10:21:57.345Z,95667.3
2018-08-06T10:22:59.546Z,95663.9
2018-08-06T10:24:01.473Z,95661.7
2018-08-06T10:25:03.409Z,95660.7
2018-08-06T10:26:05.574Z,95665.2
2018-08-06T10:27:08.028Z,95660.7
2018-08-06T10:28:10.531Z,95660
2018-08-06T10:29:12.427Z,95655.8
2018-08-06T10:30:15.389Z,95656.5
2018-08-06T10:31:17.457Z,95658.3
2018-08-06T10:32:19.369Z,95650.6
2018-08-06T10:33:21.549Z,95652.2
2018-08-06T10:34:23.719Z,95654.1
2018-08-06T10:35:26.183Z,95653.1
2018-08-06T10:36:28.637Z,95650
2018-08-06T10:37:30.839Z,95651.3
2018-08-06T10:38:33.278Z,95652.9
2018-08-06T10:39:35.152Z,95648.8
2018-08-06T10:40:37.607Z,95653.5
2018-08-06T10:41:39.784Z,95649
2018-08-06T10:42:42.237Z,95654.1
2018-08-06T10:43:44.786Z,95652.1
2018-08-06T10:44:47.247Z,95645.1
2018-08-06T10:45:49.441Z,95646.8
2018-08-06T10:46:51.892Z,95645
2018-08-06T10:47:54.076Z,95641.1
2018-08-06T10:48:55.957Z,95638.7
2018-08-06T10:49:58.139Z,95639.9
2018-08-06T10:51:00.309Z,95643.5
2018-08-06T10:52:02.492Z,95639.4
2018-08-06T10:53:04.665Z,95638.4
2018-08-06T10:54:06.827Z,95634.3
2018-08-06T10:55:08.736Z,95636.6
2018-08-06T10:56:11.400Z,95636.1
2018-08-06T10:57:13.356Z,95634.2
2018-08-06T10:58:15.248Z,95627.8
2018-08-06T10:59:17.419Z,95631.5
2018-08-06T11:00:19.605Z,95631
2018-08-06T11:01:22.046Z,95629.5
2018-08-06T11:02:24.495Z,95630.8
2018-08-06T11:03:26.697Z,95630.5
2018-08-06T11:04:28.919Z,95629.2
2018-08-06T11:05:30.828Z,95634.3
2018-08-06T11:06:32.557Z,95625.1
2018-08-06T11:07:34.441Z,95631.9
2018-08-06T11:08:36.623Z,95629.1
2018-08-06T11:09:39.078Z,95627.8
2018-08-06T11:10:41.564Z,95625.2
2018-08-06T11:11:44.020Z,95618.4
2018-08-06T11:12:46.204Z,95621
2018-08-06T11:13:48.662Z,95624.8
2018-08-06T11:14:50.838Z,95626.1
2018-08-06T11:15:53.024Z,95627.1
2018-08-06T11:16:55.205Z,95625
2018-08-06T11:17:57.377Z,95619.6
2018-08-06T11:18:59.572Z,95622.7
2018-08-06T11:20:01.737Z,95623.3
2018-08-06T11:21:04.179Z,95619.7
2018-08-06T11:22:06.330Z,95625.2
2018-08-06T11:23:08.780Z,95613
2018-08-06T11:24:11.233Z,95611.3
2018-08-06T11:25:13.419Z,95613.6
2018-08-06T11:26:15.885Z,95613.4
2018-08-06T11:27:18.077Z,95612.8
2018-08-06T11:28:20.401Z,95611.7
2018-08-06T11:29:22.267Z,95612.5
2018-08-06T11:30:23.872Z,95615.7
2018-08-06T11:31:26.054Z,95618.5
2018-08-06T11:32:28.249Z,95615.5
2018-08-06T11:33:30.433Z,95612.7
2018-08-06T11:34:32.338Z,95609.9
2018-08-06T11:35:34.816Z,95607.1
2018-08-06T11:36:37.050Z,95606.8
2018-08-06T11:37:39.539Z,95606.8
2018-08-06T11:38:41.706Z,95608.6
2018-08-06T11:39:44.158Z,95605
2018-08-06T11:40:46.612Z,95600.5
2018-08-06T11:41:48.778Z,95601.9
2018-08-06T11:42:50.664Z,95604.5
2018-08-06T11:43:52.845Z,95600.8
2018-08-06T11:44:55.296Z,95600.2
2018-08-06T11:45:57.546Z,95598.9
2018-08-06T11:47:00.066Z,95595.1
2018-08-06T11:48:02.532Z,95598.5
2018-08-06T11:49:04.704Z,95600.2
2018-08-06T11:50:07.150Z,95596.4
2018-08-06T11:51:09.297Z,95593.9
2018-08-06T11:52:11.755Z,95595.2
2018-08-06T11:53:14.208Z,95587.7
2018-08-06T11:54:16.657Z,95589.5
2018-08-06T11:55:19.109Z,95586.8
2018-08-06T11:56:21.625Z,95585.3
2018-08-06T11:57:22.969Z,95582.8
2018-08-06T11:58:25.153Z,95585
2018-08-06T11:59:27.345Z,95581
2018-08-06T12:00:29.802Z,95580.4
2018-08-06T12:01:32.005Z,95579.9
2018-08-06T12:02:34.171Z,95584
2018-08-06T12:03:36.344Z,95580.3
2018-08-06T12:04:38.790Z,95584.1
2018-08-06T12:05:40.728Z,95578
2018-08-06T12:06:42.898Z,95574.9
2018-08-06T12:07:45.084Z,95573.9
2018-08-06T12:08:47.546Z,95575.5
2018-08-06T12:09:49.157Z,95574.7
2018-08-06T12:10:51.615Z,95575.9
2018-08-06T12:11:54.063Z,95574
2018-08-06T12:12:56.509Z,95573.4
2018-08-06T12:13:58.996Z,95569.6
2018-08-06T12:15:01.250Z,95569.8
2018-08-06T12:16:03.421Z,95567.7
2018-08-06T12:17:05.593Z,95569.5
2018-08-06T12:18:07.795Z,95560.9
2018-08-06T12:19:09.707Z,95569.2
2018-08-06T12:20:11.628Z,95555.5
2018-08-06T12:21:13.592Z,95563.4
2018-08-06T12:22:15.773Z,95561.3
2018-08-06T12:23:17.957Z,95561.5
2018-08-06T12:24:19.632Z,95558.3
2018-08-06T12:25:21.538Z,95559.5
2018-08-06T12:26:24.509Z,95554.6
2018-08-06T12:27:27.256Z,95553
2018-08-06T12:28:29.131Z,95552.8
2018-08-06T12:29:31.297Z,95553.9
2018-08-06T12:30:33.769Z,95557.5
2018-08-06T12:31:35.767Z,95555.4
2018-08-06T12:32:38.053Z,95551.3
2018-08-06T12:33:40.098Z,95557.9
2018-08-06T12:34:42.057Z,95547.5
2018-08-06T12:35:43.958Z,95554.3
2018-08-06T12:36:46.396Z,95548.3